Time;durP1;ratioP1;P1;durP2;ratioP2;P2;SDS_P1;SDS_P2;PMS_P1;PMS_P2;Temp;Humidity;BMP_temperature;BMP_pressure;BME280_temperature;BME280_humidity;BME280_pressure;Samples;Min_cycle;Max_cycle;Signal;HPM_P1;HPM_P2
2023/01/14 00:00:04;;;;;;;9.38;5.68;;;;;;;5.03;100.00;99072.59;5097552;28;20040;-67
2023/01/14 00:03:09;;;;;;;7.22;5.20;;;;;;;5.01;100.00;99061.44;5099515;28;20120;-68
2023/01/14 00:05:59;;;;;;;6.43;4.00;;;;;;;5.02;100.00;99063.13;5090591;28;20048;-69
2023/01/14 00:08:44;;;;;;;5.95;3.85;;;;;;;5.04;100.00;99056.13;5089928;28;20047;-68
2023/01/14 00:11:51;;;;;;;8.10;4.65;;;;;;;4.99;100.00;99055.47;5093313;28;20180;-68
2023/01/14 00:14:35;;;;;;;6.18;3.55;;;;;;;5.06;100.00;99062.06;5093128;28;20064;-69
2023/01/14 00:17:20;;;;;;;7.20;4.05;;;;;;;5.03;100.00;99073.44;5076745;28;20093;-67
2023/01/14 00:20:05;;;;;;;4.97;2.03;;;;;;;5.04;100.00;99064.72;5092369;28;20087;-68
2023/01/14 00:22:50;;;;;;;4.22;1.88;;;;;;;4.97;100.00;99072.84;5092781;28;20534;-67
2023/01/14 00:25:35;;;;;;;3.53;1.58;;;;;;;4.98;100.00;99074.56;5100373;28;20049;-68
2023/01/14 00:28:20;;;;;;;4.72;2.10;;;;;;;5.02;100.00;99068.31;5095482;28;20066;-67
2023/01/14 00:31:11;;;;;;;4.10;1.98;;;;;;;5.11;100.00;99074.91;5090473;28;20471;-67
2023/01/14 00:33:59;;;;;;;5.47;2.33;;;;;;;5.05;100.00;99063.00;5087141;28;20479;-68
2023/01/14 00:36:44;;;;;;;4.25;2.08;;;;;;;4.94;100.00;99066.03;5072582;28;20569;-68
2023/01/14 00:39:29;;;;;;;3.28;1.60;;;;;;;4.83;100.00;99063.84;5096889;28;20050;-68
2023/01/14 00:42:14;;;;;;;3.42;1.17;;;;;;;4.72;100.00;99068.66;5092619;28;20434;-68
2023/01/14 00:45:03;;;;;;;2.25;1.20;;;;;;;4.70;100.00;99073.06;5095400;28;20054;-68
2023/01/14 00:47:47;;;;;;;4.35;1.50;;;;;;;4.60;100.00;99077.75;5078193;28;20040;-68
2023/01/14 00:50:32;;;;;;;3.85;1.38;;;;;;;4.54;100.00;99071.88;5080892;28;20031;-68
2023/01/14 00:53:17;;;;;;;3.53;1.88;;;;;;;4.54;100.00;99077.09;5091909;28;20491;-68
2023/01/14 00:56:03;;;;;;;14.38;1.20;;;;;;;4.56;100.00;99072.69;5096767;28;20482;-66
2023/01/14 00:58:47;;;;;;;2.85;1.15;;;;;;;4.61;100.00;99082.03;5107040;28;20089;-66
2023/01/14 01:01:32;;;;;;;3.10;1.27;;;;;;;4.65;100.00;99078.44;5076683;28;20046;-67
2023/01/14 01:04:18;;;;;;;3.92;1.27;;;;;;;4.69;100.00;99079.97;5083029;28;20113;-68
2023/01/14 01:07:05;;;;;;;2.38;0.90;;;;;;;4.66;100.00;99083.56;5111681;28;20039;-67
2023/01/14 01:09:49;;;;;;;3.67;1.10;;;;;;;4.59;100.00;99082.09;5111821;28;20047;-67
2023/01/14 01:12:34;;;;;;;2.47;0.80;;;;;;;4.60;100.00;99086.41;5096580;28;20047;-69
2023/01/14 01:15:19;;;;;;;4.65;0.60;;;;;;;4.60;99.78;99085.53;5065360;28;20051;-67
2023/01/14 01:18:06;;;;;;;2.13;0.80;;;;;;;4.76;99.69;99096.16;5093575;28;20490;-68
2023/01/14 01:21:14;;;;;;;2.78;0.80;;;;;;;4.85;98.87;99093.19;5064855;28;20048;-68
2023/01/14 01:23:59;;;;;;;1.70;0.70;;;;;;;4.85;98.38;99093.19;5091520;28;20376;-69
2023/01/14 01:26:45;;;;;;;2.55;0.80;;;;;;;4.84;98.84;99096.72;5091215;28;20085;-68
2023/01/14 01:29:31;;;;;;;2.35;0.80;;;;;;;4.73;98.84;99086.75;5091893;28;20044;-69
2023/01/14 01:32:15;;;;;;;1.75;0.50;;;;;;;4.68;98.85;99089.50;5060223;28;20036;-69
2023/01/14 01:35:00;;;;;;;1.67;0.57;;;;;;;4.65;98.72;99094.00;5104841;28;20417;-68
2023/01/14 01:37:45;;;;;;;2.05;0.65;;;;;;;4.70;98.33;99092.03;5089933;28;20142;-68
2023/01/14 01:40:33;;;;;;;2.38;0.70;;;;;;;4.75;98.14;99097.09;5100657;28;20110;-68
2023/01/14 01:43:25;;;;;;;2.03;0.70;;;;;;;4.78;97.50;99110.75;5098729;28;20126;-67
2023/01/14 01:46:10;;;;;;;2.65;0.60;;;;;;;4.73;98.15;99110.13;5108502;28;20078;-68
2023/01/14 01:49:00;;;;;;;2.83;0.55;;;;;;;4.69;98.50;99111.13;5081273;28;20059;-67
2023/01/14 01:51:51;;;;;;;2.13;0.70;;;;;;;4.74;98.41;99113.53;5076850;28;20046;-68
2023/01/14 01:54:41;;;;;;;1.63;0.50;;;;;;;4.70;97.90;99112.81;5098291;28;20358;-68
2023/01/14 01:57:26;;;;;;;4.07;1.08;;;;;;;4.82;97.98;99116.69;5078299;28;20151;-68
2023/01/14 02:00:11;;;;;;;3.42;0.63;;;;;;;4.85;97.48;99113.16;5074678;28;20036;-67
2023/01/14 02:03:10;;;;;;;;;;;;;;;4.89;96.10;99119.91;5085509;28;20431;-67
2023/01/14 02:05:55;;;;;;;1.90;0.70;;;;;;;4.97;95.18;99120.44;5089236;28;20148;-68
2023/01/14 02:08:46;;;;;;;4.50;0.70;;;;;;;4.97;95.12;99125.63;5091532;28;20498;-68
2023/01/14 02:11:44;;;;;;;1.63;0.63;;;;;;;4.99;95.21;99123.84;5081287;28;20067;-67
2023/01/14 02:15:05;;;;;;;3.13;1.17;;;;;;;4.98;94.58;99129.09;5073454;28;20044;-67
2023/01/14 02:18:08;;;;;;;1.90;0.55;;;;;;;4.99;94.09;99120.38;5089186;28;20134;-67
2023/01/14 02:21:09;;;;;;;2.88;0.73;;;;;;;5.03;94.51;99124.53;5091285;28;20593;-68
2023/01/14 02:24:48;;;;;;;2.38;0.75;;;;;;;5.09;94.14;99136.44;5104176;28;20071;-68
2023/01/14 02:27:46;;;;;;;2.42;0.85;;;;;;;5.08;93.72;99140.78;4976140;28;20061;-68
2023/01/14 02:30:45;;;;;;;2.67;0.80;;;;;;;5.07;94.04;99146.88;4994962;28;20073;-67
2023/01/14 02:33:46;;;;;;;1.52;0.63;;;;;;;5.01;93.68;99149.75;5011685;28;20038;-67
2023/01/14 02:36:41;;;;;;;;;;;;;;;5.05;94.13;99146.09;5012095;28;20037;-68
2023/01/14 02:39:47;;;;;;;2.97;0.50;;;;;;;5.14;93.69;99140.53;4984584;28;20365;-67
2023/01/14 02:45:55;;;;;;;3.30;0.80;;;;;;;5.21;93.23;99150.66;4994222;28;20124;-67
2023/01/14 02:48:41;;;;;;;2.38;0.57;;;;;;;5.27;92.34;99145.25;5009234;28;20502;-67
2023/01/14 02:51:26;;;;;;;1.85;0.68;;;;;;;5.27;92.41;99147.84;4986341;28;20060;-68
2023/01/14 02:54:12;;;;;;;3.60;0.70;;;;;;;5.29;92.65;99148.59;4995510;28;20042;-68
2023/01/14 02:57:04;;;;;;;1.38;0.40;;;;;;;5.25;93.36;99160.03;4991673;28;20045;-66
2023/01/14 03:00:07;;;;;;;4.05;0.75;;;;;;;5.14;92.77;99152.69;5000739;28;20121;-68
2023/01/14 03:03:38;;;;;;;2.33;0.60;;;;;;;5.18;93.30;99156.84;5037689;28;20048;-68
2023/01/14 03:06:41;;;;;;;6.40;0.83;;;;;;;5.28;93.44;99160.78;5090125;28;20070;-68
2023/01/14 03:09:52;;;;;;;1.40;0.70;;;;;;;5.29;92.49;99157.25;5099144;28;20491;-68
2023/01/14 03:12:59;;;;;;;2.38;0.68;;;;;;;5.27;93.07;99166.03;5087196;28;20139;-67
2023/01/14 03:15:53;;;;;;;3.88;0.75;;;;;;;5.31;92.37;99167.59;5079038;28;20040;-67
2023/01/14 03:18:49;;;;;;;1.73;0.60;;;;;;;5.22;92.70;99161.03;5102684;28;20036;-68
2023/01/14 03:21:39;;;;;;;1.95;0.57;;;;;;;5.17;93.41;99162.97;5080224;28;20149;-67
2023/01/14 03:24:33;;;;;;;1.42;0.40;;;;;;;5.16;94.05;99163.84;5074399;28;20043;-68
2023/01/14 03:27:24;;;;;;;3.17;0.43;;;;;;;5.14;93.78;99169.09;5086673;28;20116;-68
2023/01/14 03:30:16;;;;;;;3.55;0.82;;;;;;;5.09;93.90;99167.59;5085531;28;20382;-67
2023/01/14 03:33:09;;;;;;;2.58;0.68;;;;;;;5.09;93.82;99168.47;5089761;28;20047;-68
2023/01/14 03:35:57;;;;;;;1.92;0.43;;;;;;;5.07;94.68;99170.25;5066310;28;20785;-68
2023/01/14 03:39:13;;;;;;;1.90;0.77;;;;;;;5.10;94.33;99171.88;5077656;28;20040;-68
2023/01/14 03:42:20;;;;;;;2.30;0.63;;;;;;;5.12;94.78;99170.09;5077800;28;20860;-68
2023/01/14 03:45:18;;;;;;;1.85;0.60;;;;;;;5.16;94.82;99171.63;5093245;28;20428;-67
2023/01/14 03:48:04;;;;;;;2.60;0.70;;;;;;;5.05;95.09;99169.47;5100531;28;20104;-68
2023/01/14 03:51:20;;;;;;;1.65;0.68;;;;;;;5.00;95.56;99167.06;5110214;28;20079;-68
2023/01/14 03:54:13;;;;;;;2.88;0.70;;;;;;;4.94;95.88;99182.88;5092832;28;20387;-68
2023/01/14 03:57:15;;;;;;;1.58;0.60;;;;;;;4.99;95.96;99182.69;5092467;28;20059;-68
2023/01/14 04:00:07;;;;;;;3.05;0.70;;;;;;;5.07;95.63;99180.66;5055139;28;20047;-69
2023/01/14 04:03:01;;;;;;;3.53;0.60;;;;;;;5.13;95.27;99190.81;5077856;28;20155;-68
2023/01/14 04:05:46;;;;;;;4.18;0.95;;;;;;;5.09;95.73;99191.84;5081803;28;20027;-68
2023/01/14 04:08:32;;;;;;;1.73;0.50;;;;;;;5.12;95.64;99183.06;5112714;28;20050;-68
2023/01/14 04:11:16;;;;;;;3.03;0.70;;;;;;;5.17;95.60;99194.13;5112773;28;20042;-68
2023/01/14 04:17:05;;;;;;;1.42;0.70;;;;;;;5.13;95.60;99193.41;5094488;28;20054;-67
2023/01/14 04:19:51;;;;;;;2.08;0.70;;;;;;;5.11;95.36;99203.00;5092617;28;20036;-68
2023/01/14 04:22:36;;;;;;;1.65;0.70;;;;;;;5.14;95.43;99195.06;5092525;28;20423;-67
2023/01/14 04:25:20;;;;;;;2.63;0.70;;;;;;;5.05;95.99;99196.31;5097511;28;20043;-67
2023/01/14 04:28:05;;;;;;;2.97;0.57;;;;;;;5.03;96.70;99203.28;5099520;28;20052;-67
2023/01/14 04:30:50;;;;;;;1.83;0.70;;;;;;;5.02;96.60;99205.94;5077416;28;20036;-67
2023/01/14 04:33:35;;;;;;;2.63;0.60;;;;;;;5.05;96.37;99209.28;5100982;28;20390;-67
2023/01/14 04:36:20;;;;;;;2.15;0.70;;;;;;;5.12;95.80;99198.66;5104078;28;20092;-67
2023/01/14 04:39:04;;;;;;;1.08;0.50;;;;;;;5.08;95.86;99202.25;5092491;28;20039;-67
2023/01/14 04:44:56;;;;;;;1.73;0.70;;;;;;;4.88;96.84;99207.31;5092907;28;20093;-68
2023/01/14 04:47:41;;;;;;;2.08;0.68;;;;;;;4.88;96.57;99203.91;5097341;28;20076;-67
2023/01/14 04:50:31;;;;;;;2.83;0.60;;;;;;;4.86;96.61;99195.31;5097996;28;20066;-67
2023/01/14 04:53:18;;;;;;;2.78;0.68;;;;;;;4.74;97.33;99201.81;5101484;28;20040;-67
2023/01/14 04:56:03;;;;;;;1.13;0.50;;;;;;;4.77;97.63;99196.50;5083865;28;20046;-68
2023/01/14 04:58:48;;;;;;;3.95;0.98;;;;;;;4.81;96.87;99208.47;5089518;28;20125;-67
2023/01/14 05:01:32;;;;;;;2.03;0.60;;;;;;;4.76;96.95;99200.88;5089637;28;20043;-67
2023/01/14 05:04:17;;;;;;;2.08;0.57;;;;;;;4.73;96.76;99213.97;5091848;28;20056;-68
2023/01/14 05:07:02;;;;;;;1.02;0.50;;;;;;;4.65;97.26;99213.41;5060962;28;20437;-67
2023/01/14 05:09:47;;;;;;;1.42;0.75;;;;;;;4.61;97.26;99211.78;5101404;28;20054;-69
2023/01/14 05:12:32;;;;;;;1.45;0.47;;;;;;;4.59;97.51;99209.25;5091838;28;20430;-68
2023/01/14 05:15:19;;;;;;;2.13;0.70;;;;;;;4.58;97.63;99211.91;5095300;28;20036;-68
2023/01/14 05:18:06;;;;;;;2.55;0.68;;;;;;;4.54;97.61;99218.97;5097329;28;20145;-67
2023/01/14 05:20:50;;;;;;;1.77;0.70;;;;;;;4.48;98.58;99214.84;5082983;28;20590;-68
2023/01/14 05:23:35;;;;;;;2.72;0.60;;;;;;;4.46;98.06;99239.13;5076270;28;20115;-67
2023/01/14 05:26:20;;;;;;;1.17;0.52;;;;;;;4.39;98.39;99231.56;5105438;28;20035;-68
2023/01/14 05:29:05;;;;;;;1.90;0.57;;;;;;;4.43;98.77;99227.13;5110297;28;20044;-67
2023/01/14 05:31:50;;;;;;;1.92;0.47;;;;;;;4.40;98.80;99233.28;5106587;28;20138;-67
2023/01/14 05:34:34;;;;;;;1.33;0.65;;;;;;;4.42;98.68;99231.47;5103313;28;20043;-67
2023/01/14 05:37:19;;;;;;;1.05;0.45;;;;;;;4.40;99.02;99229.84;5106155;28;20032;-68
2023/01/14 05:40:04;;;;;;;1.77;0.80;;;;;;;4.27;98.97;99240.66;5100501;28;20036;-68
2023/01/14 05:45:52;;;;;;;1.35;0.68;;;;;;;4.26;99.59;99245.91;5100369;28;20059;-66
2023/01/14 05:48:36;;;;;;;1.77;0.75;;;;;;;4.27;98.30;99257.97;5104591;28;20067;-67
2023/01/14 05:51:21;;;;;;;3.10;0.70;;;;;;;4.32;97.69;99256.88;5100011;28;20036;-67
2023/01/14 05:54:07;;;;;;;2.22;0.90;;;;;;;4.35;97.30;99262.88;5077985;28;20734;-67
2023/01/14 05:56:52;;;;;;;1.80;0.60;;;;;;;4.44;96.67;99260.81;5103369;28;20051;-67
2023/01/14 05:59:37;;;;;;;1.65;0.60;;;;;;;4.39;96.37;99267.06;5091457;28;20386;-68
2023/01/14 06:08:28;;;;;;;1.75;0.70;;;;;;;4.25;97.81;99263.22;5101366;28;20048;-67
2023/01/14 06:11:12;;;;;;;1.85;0.60;;;;;;;4.15;97.76;99272.19;5095079;28;20421;-67
2023/01/14 06:13:57;;;;;;;2.55;0.75;;;;;;;4.22;98.04;99267.66;5095839;28;20059;-68
2023/01/14 06:16:42;;;;;;;0.93;0.55;;;;;;;4.13;98.03;99266.22;5094834;28;20403;-67
2023/01/14 06:19:26;;;;;;;1.95;0.50;;;;;;;4.15;97.54;99267.84;5079963;28;20048;-67
2023/01/14 06:22:11;;;;;;;1.27;0.65;;;;;;;4.20;97.49;99270.28;5107374;28;20031;-67
2023/01/14 06:24:56;;;;;;;1.13;0.45;;;;;;;4.23;96.89;99265.00;5093019;28;20557;-68
2023/01/14 06:27:40;;;;;;;1.02;0.60;;;;;;;4.35;96.75;99275.84;5095098;28;20054;-67
2023/01/14 06:30:25;;;;;;;1.90;0.47;;;;;;;4.25;96.73;99273.59;5094927;28;20122;-67
2023/01/14 06:33:10;;;;;;;2.35;0.65;;;;;;;4.21;96.85;99276.34;5094612;28;20543;-67
2023/01/14 06:35:55;;;;;;;2.15;0.50;;;;;;;4.21;96.67;99281.53;5094926;28;20044;-67
2023/01/14 06:38:41;;;;;;;2.95;0.60;;;;;;;4.16;96.64;99284.28;5089756;28;20067;-66
2023/01/14 06:41:26;;;;;;;1.83;0.50;;;;;;;4.21;97.03;99286.72;5095181;28;20036;-68
2023/01/14 06:44:10;;;;;;;0.98;0.43;;;;;;;4.23;96.42;99284.91;5091017;28;20063;-67
2023/01/14 06:46:55;;;;;;;1.50;0.50;;;;;;;4.24;96.13;99292.66;5080350;28;20063;-66
2023/01/14 06:49:40;;;;;;;1.90;0.40;;;;;;;4.26;96.42;99298.63;5094948;28;20100;-66
2023/01/14 06:52:25;;;;;;;1.25;0.40;;;;;;;4.38;96.07;99299.94;5094257;28;20537;-67
2023/01/14 06:55:09;;;;;;;1.05;0.50;;;;;;;4.48;95.93;99297.03;5094461;28;20052;-67
2023/01/14 06:57:54;;;;;;;1.08;0.32;;;;;;;4.44;96.23;99302.31;5089028;28;20127;-67
2023/01/14 07:00:41;;;;;;;2.08;0.50;;;;;;;4.39;95.74;99298.22;5096213;28;20101;-66
2023/01/14 07:03:26;;;;;;;1.25;0.32;;;;;;;4.34;96.18;99298.34;5048113;28;20506;-66
2023/01/14 07:06:10;;;;;;;1.55;0.60;;;;;;;4.37;96.83;99300.00;5094422;28;20115;-66
2023/01/14 07:08:56;;;;;;;2.67;0.82;;;;;;;4.27;96.59;99302.91;5098465;28;20054;-67
2023/01/14 07:11:42;;;;;;;1.75;0.43;;;;;;;4.39;96.87;99303.41;5113997;28;20070;-66
2023/01/14 07:14:27;;;;;;;1.73;0.50;;;;;;;4.78;95.73;99300.28;5094402;28;20056;-67
2023/01/14 07:17:12;;;;;;;2.55;0.80;;;;;;;5.48;91.82;99298.63;5097123;28;20162;-68
2023/01/14 07:19:56;;;;;;;0.95;0.50;;;;;;;5.88;88.69;99302.22;5088744;28;20036;-67
2023/01/14 07:22:41;;;;;;;3.75;0.60;;;;;;;6.41;86.68;99313.09;5111277;28;20110;-67
2023/01/14 07:25:26;;;;;;;1.83;0.60;;;;;;;6.92;84.21;99305.75;5106046;28;20105;-68
2023/01/14 07:28:11;;;;;;;2.15;0.40;;;;;;;7.23;82.07;99304.34;5083996;28;20031;-67
2023/01/14 07:30:56;;;;;;;1.17;0.22;;;;;;;7.72;79.99;99306.41;5081359;28;20040;-67
2023/01/14 07:33:40;;;;;;;1.77;0.45;;;;;;;7.90;77.11;99306.41;5093218;28;20036;-60
2023/01/14 07:36:25;;;;;;;3.97;0.75;;;;;;;7.75;76.82;99311.47;5091459;28;20032;-60
2023/01/14 07:39:10;;;;;;;3.92;0.50;;;;;;;7.89;78.20;99308.22;5093098;28;20040;-60
2023/01/14 07:41:55;;;;;;;1.48;0.40;;;;;;;8.24;74.71;99301.31;5092860;28;20123;-61
2023/01/14 07:44:43;;;;;;;2.25;0.60;;;;;;;8.48;73.56;99307.06;5104169;28;20078;-61
2023/01/14 07:47:28;;;;;;;0.98;0.40;;;;;;;8.91;71.04;99307.53;5108784;28;20058;-60
2023/01/14 07:50:13;;;;;;;2.45;0.40;;;;;;;9.26;69.37;99303.94;5111963;28;20110;-59
2023/01/14 07:52:59;;;;;;;3.40;0.70;;;;;;;9.43;68.71;99295.19;5077660;28;20479;-60
2023/01/14 07:55:43;;;;;;;3.17;0.50;;;;;;;9.67;67.17;99303.44;5095075;28;20043;-60
2023/01/14 07:58:29;;;;;;;2.20;0.40;;;;;;;11.41;68.44;99307.19;5058767;28;20487;-61
2023/01/14 08:01:13;;;;;;;2.78;0.90;;;;;;;11.94;77.75;99308.25;5093172;28;20166;-65
2023/01/14 08:03:58;;;;;;;11.20;1.90;;;;;;;13.07;95.49;99317.38;5078781;28;20158;-51
2023/01/14 08:06:43;;;;;;;2.30;0.50;;;;;;;14.68;89.56;99325.97;5064749;28;20038;-57
2023/01/14 08:09:28;;;;;;;5.13;0.82;;;;;;;14.18;67.26;99322.66;5078631;28;20181;-60
2023/01/14 08:12:14;;;;;;;2.30;0.50;;;;;;;13.76;65.95;99317.78;5094941;28;20139;-60
2023/01/14 08:15:02;;;;;;;3.33;0.80;;;;;;;11.85;57.66;99321.97;5109873;28;20040;-61
2023/01/14 08:17:47;;;;;;;2.28;0.70;;;;;;;11.31;59.79;99330.53;5090325;28;20463;-60
2023/01/14 08:20:31;;;;;;;2.55;0.75;;;;;;;11.92;58.68;99337.22;5091961;28;20050;-59
2023/01/14 08:23:16;;;;;;;0.95;0.45;;;;;;;12.25;57.50;99337.75;5107322;28;20048;-60
2023/01/14 08:26:04;;;;;;;3.35;0.50;;;;;;;12.18;57.73;99333.84;5105162;28;20485;-60
2023/01/14 08:28:49;;;;;;;1.40;0.50;;;;;;;13.06;57.65;99337.56;5095216;28;20111;-60
2023/01/14 08:31:34;;;;;;;1.75;0.63;;;;;;;11.87;59.51;99341.06;5107212;28;20044;-60
2023/01/14 08:34:19;;;;;;;1.95;0.35;;;;;;;12.53;55.83;99340.31;5100354;28;20062;-59
2023/01/14 08:37:05;;;;;;;2.72;0.60;;;;;;;12.54;55.30;99331.47;5097190;28;20067;-59
2023/01/14 08:39:49;;;;;;;1.38;0.65;;;;;;;12.57;57.05;99336.53;5093449;28;20054;-57
2023/01/14 08:42:34;;;;;;;2.85;0.43;;;;;;;13.26;54.02;99337.09;5091406;28;20447;-59
2023/01/14 08:45:19;;;;;;;3.45;0.57;;;;;;;13.13;52.38;99340.63;5104897;28;20412;-64
2023/01/14 08:48:04;;;;;;;2.63;0.60;;;;;;;13.34;52.73;99342.66;5095782;28;20737;-60
2023/01/14 08:50:49;;;;;;;2.92;0.30;;;;;;;12.60;53.94;99348.63;5092381;28;20044;-60
2023/01/14 08:53:35;;;;;;;5.93;0.50;;;;;;;12.79;52.36;99340.31;5076582;28;20055;-58
2023/01/14 08:56:20;;;;;;;1.50;0.50;;;;;;;13.66;52.09;99330.81;5102324;28;20047;-58
2023/01/14 08:59:04;;;;;;;3.00;0.75;;;;;;;12.76;53.78;99340.53;5098731;28;20048;-55
2023/01/14 09:01:49;;;;;;;2.35;0.47;;;;;;;13.51;55.21;99345.94;5092484;28;20035;-62
2023/01/14 09:04:34;;;;;;;2.85;0.55;;;;;;;13.85;50.33;99348.75;5095464;28;20055;-56
2023/01/14 09:19:39;;;;;;;7.10;0.70;;;;;;;12.94;68.38;99368.19;5095366;28;20036;-60
2023/01/14 09:22:29;;;;;;;2.28;0.60;;;;;;;14.89;63.59;99358.66;5098987;28;20040;-62
2023/01/14 09:25:14;;;;;;;2.25;0.80;;;;;;;15.37;50.22;99358.53;5092230;28;20118;-61
2023/01/14 09:27:59;;;;;;;4.13;0.90;;;;;;;14.20;53.91;99348.88;5091577;28;20068;-60
2023/01/14 09:30:43;;;;;;;3.25;0.80;;;;;;;13.84;49.84;99354.94;5091811;28;20036;-60
2023/01/14 09:33:28;;;;;;;4.05;0.70;;;;;;;12.43;54.42;99354.09;5102808;28;20127;-59
2023/01/14 09:36:13;;;;;;;3.88;0.50;;;;;;;13.47;71.84;99355.78;5106368;28;20474;-56
2023/01/14 09:38:57;;;;;;;3.80;0.63;;;;;;;15.23;58.03;99346.41;5099869;28;20071;-58
2023/01/14 09:41:51;;;;;;;2.50;0.45;;;;;;;16.18;53.34;99341.50;5092317;28;20040;-58
2023/01/14 09:44:36;;;;;;;4.53;0.60;;;;;;;15.79;54.88;99339.34;5102210;28;20112;-59
2023/01/14 09:47:22;;;;;;;2.67;0.60;;;;;;;15.08;51.99;99336.09;5093560;28;20162;-60
2023/01/14 09:50:14;;;;;;;1.88;0.57;;;;;;;14.03;53.57;99333.38;5101294;28;20036;-57
2023/01/14 09:53:05;;;;;;;;;;;;;;;14.28;47.10;99342.06;5091932;28;20402;-58
2023/01/14 09:56:19;;;;;;;3.05;0.60;;;;;;;13.49;54.25;99351.28;5095084;28;19916;-60
2023/01/14 09:59:16;;;;;;;3.22;0.60;;;;;;;12.03;60.37;99343.53;5077378;28;20040;-60
2023/01/14 10:02:04;;;;;;;3.65;0.70;;;;;;;12.89;79.69;99336.09;5094398;28;20048;-54
2023/01/14 10:05:28;;;;;;;2.63;0.60;;;;;;;11.57;59.63;99342.97;5103128;28;20722;-58
2023/01/14 10:08:14;;;;;;;3.67;0.50;;;;;;;14.96;57.93;99337.06;5081077;28;20433;-50
2023/01/14 10:11:00;;;;;;;2.92;1.10;;;;;;;15.39;55.17;99333.66;5091320;28;20060;-59
2023/01/14 10:13:56;;;;;;;2.95;0.70;;;;;;;15.56;57.82;99331.47;5084125;28;20068;-52
2023/01/14 10:16:43;;;;;;;3.67;0.80;;;;;;;15.72;48.49;99324.94;5073894;28;20038;-56
2023/01/14 10:19:46;;;;;;;2.38;0.63;;;;;;;14.98;60.97;99330.69;5091946;28;20108;-55
2023/01/14 10:22:45;;;;;;;3.83;0.60;;;;;;;15.68;60.55;99331.44;5094304;28;20040;-53
2023/01/14 10:25:30;;;;;;;2.65;0.75;;;;;;;15.39;55.75;99333.66;5096143;28;20040;-60
2023/01/14 10:28:17;;;;;;;2.20;0.55;;;;;;;12.34;52.35;99328.41;5100189;28;20036;-54
2023/01/14 10:31:02;;;;;;;4.55;0.80;;;;;;;11.31;55.78;99325.28;5095505;28;20044;-58
2023/01/14 10:33:47;;;;;;;3.58;0.77;;;;;;;12.16;55.56;99312.94;5097694;28;20115;-58
2023/01/14 10:36:32;;;;;;;2.75;0.52;;;;;;;12.36;53.14;99308.13;5085365;28;20051;-57
2023/01/14 10:39:16;;;;;;;2.75;0.60;;;;;;;12.26;51.63;99305.28;5096012;28;20494;-57
2023/01/14 10:42:03;;;;;;;2.28;0.63;;;;;;;12.29;52.38;99299.00;5091858;28;20566;-56
2023/01/14 10:44:48;;;;;;;0.82;0.40;;;;;;;12.04;51.92;99293.56;5100296;28;20032;-57
2023/01/14 10:47:33;;;;;;;3.10;0.50;;;;;;;11.94;52.68;99300.38;5099210;28;20176;-59
2023/01/14 10:50:21;;;;;;;5.82;0.70;;;;;;;11.99;52.42;99294.81;5091791;28;20632;-58
2023/01/14 10:53:23;;;;;;;2.92;0.63;;;;;;;12.99;52.05;99291.59;5091105;28;20036;-59
2023/01/14 10:56:08;;;;;;;1.45;0.70;;;;;;;13.72;48.50;99288.25;5094071;28;20036;-56
2023/01/14 10:58:55;;;;;;;1.48;0.50;;;;;;;13.75;47.12;99289.81;5079174;28;20056;-57
2023/01/14 11:01:41;;;;;;;2.38;0.47;;;;;;;13.34;48.74;99287.41;5098891;28;20032;-58
2023/01/14 11:04:35;;;;;;;2.47;0.50;;;;;;;13.80;48.21;99285.03;5095385;28;20691;-57
2023/01/14 11:07:26;;;;;;;2.42;0.50;;;;;;;13.74;46.74;99286.31;5095452;28;20032;-59
2023/01/14 11:10:58;;;;;;;2.75;0.50;;;;;;;13.97;46.88;99283.78;5087587;28;20043;-58
2023/01/14 11:13:50;;;;;;;1.42;0.45;;;;;;;12.93;48.67;99282.34;5029633;28;20045;-59
2023/01/14 11:16:38;;;;;;;2.53;0.50;;;;;;;14.43;46.58;99275.16;5014869;28;20069;-57
2023/01/14 11:19:24;;;;;;;2.65;0.43;;;;;;;14.37;46.15;99260.63;5029549;28;20037;-58
2023/01/14 11:22:10;;;;;;;3.28;0.63;;;;;;;15.26;44.94;99265.19;5013071;28;20087;-58
2023/01/14 11:24:55;;;;;;;2.42;0.70;;;;;;;15.65;43.59;99261.25;5028485;28;20125;-58
2023/01/14 11:27:47;;;;;;;2.83;0.75;;;;;;;14.77;43.84;99265.44;5025228;28;20103;-55
2023/01/14 11:30:33;;;;;;;1.70;0.35;;;;;;;14.06;44.17;99257.69;5027743;28;20132;-51
2023/01/14 11:33:20;;;;;;;1.80;0.68;;;;;;;13.26;45.66;99256.41;5012182;28;20045;-53
2023/01/14 11:36:09;;;;;;;3.30;0.50;;;;;;;14.64;43.97;99252.38;5024032;28;20053;-54
2023/01/14 11:38:57;;;;;;;1.70;0.30;;;;;;;16.17;41.37;99249.13;4999675;28;20156;-58
2023/01/14 11:41:41;;;;;;;2.63;0.50;;;;;;;15.41;43.09;99250.88;5027453;28;20111;-56
2023/01/14 11:44:28;;;;;;;1.88;0.32;;;;;;;15.18;41.48;99249.13;5019781;28;20073;-58
2023/01/14 11:47:17;;;;;;;1.95;0.47;;;;;;;15.14;49.67;99237.16;5024585;28;20201;-51
2023/01/14 11:50:27;;;;;;;4.00;0.50;;;;;;;16.08;50.65;99240.16;5062753;28;20059;-59
2023/01/14 11:53:16;;;;;;;4.30;0.70;;;;;;;17.54;48.23;99224.09;5100480;28;20031;-56
2023/01/14 11:56:01;;;;;;;3.00;0.57;;;;;;;15.92;42.31;99219.44;5093143;28;20539;-50
2023/01/14 11:58:46;;;;;;;1.83;0.45;;;;;;;15.75;45.22;99221.69;5101937;28;20504;-51
2023/01/14 12:01:41;;;;;;;2.60;0.50;;;;;;;15.12;43.09;99229.38;5101162;28;20047;-61
2023/01/14 12:04:51;;;;;;;4.00;0.50;;;;;;;15.01;42.99;99210.91;5102507;28;20032;-58
2023/01/14 12:07:57;;;;;;;1.77;0.50;;;;;;;15.39;42.21;99200.88;5103623;28;20657;-65
2023/01/14 12:10:47;;;;;;;3.67;0.50;;;;;;;16.65;40.13;99202.72;5106290;28;20040;-59
2023/01/14 12:17:03;;;;;;;3.08;0.60;;;;;;;16.75;39.70;99206.25;5104075;28;20493;-61
2023/01/14 12:19:57;;;;;;;3.05;0.68;;;;;;;18.77;41.54;99187.25;5087452;28;20043;-57
2023/01/14 12:23:05;;;;;;;1.23;0.50;;;;;;;16.75;37.94;99200.13;5076545;28;20164;-60
2023/01/14 12:25:53;;;;;;;2.20;0.50;;;;;;;15.57;43.07;99190.56;5079136;28;20044;-51
2023/01/14 12:28:47;;;;;;;3.55;0.40;;;;;;;17.54;41.04;99183.53;5096285;28;20043;-57
2023/01/14 12:31:46;;;;;;;2.97;0.50;;;;;;;16.70;37.64;99175.88;5100826;28;20093;-54
2023/01/14 12:35:13;;;;;;;3.53;0.70;;;;;;;15.39;39.67;99169.19;5099154;28;20498;-59
2023/01/14 12:38:03;;;;;;;0.98;0.20;;;;;;;15.57;39.15;99163.34;4997689;28;20046;-59
2023/01/14 12:47:03;;;;;;;1.90;0.45;;;;;;;16.02;39.24;99164.91;4998460;28;20065;-58
2023/01/14 12:49:50;;;;;;;1.97;0.57;;;;;;;15.26;44.24;99164.06;4993697;28;20041;-58
2023/01/14 12:52:39;;;;;;;2.70;0.30;;;;;;;15.61;40.21;99170.03;5003686;28;20156;-61
2023/01/14 12:55:38;;;;;;;2.30;0.60;;;;;;;17.26;40.14;99157.75;5001411;28;20548;-63
2023/01/14 12:58:27;;;;;;;1.98;0.52;;;;;;;17.69;36.94;99155.63;4995871;28;20219;-67
2023/01/14 13:01:12;;;;;;;2.08;0.52;;;;;;;16.85;41.51;99152.53;4989990;28;20075;-63
2023/01/14 13:04:05;;;;;;;2.58;0.32;;;;;;;15.93;36.68;99160.38;4990794;28;20592;-67
2023/01/14 13:06:58;;;;;;;1.90;0.85;;;;;;;14.40;39.44;99147.06;5002184;28;20042;-66
2023/01/14 13:09:48;;;;;;;5.82;0.43;;;;;;;15.34;45.80;99151.06;5001855;28;20122;-63
2023/01/14 13:12:48;;;;;;;1.70;0.40;;;;;;;16.61;37.98;99146.59;5087807;28;20379;-69
2023/01/14 13:15:37;;;;;;;1.70;0.45;;;;;;;16.05;39.30;99158.50;5089845;28;20420;-69
2023/01/14 13:18:33;;;;;;;1.77;0.40;;;;;;;15.51;45.26;99160.25;5096525;28;20051;-72
2023/01/14 13:21:54;;;;;;;2.40;0.38;;;;;;;16.17;37.13;99151.34;5077341;28;20066;-65
2023/01/14 13:24:46;;;;;;;1.25;0.20;;;;;;;16.86;37.80;99141.81;5091103;28;20089;-68
2023/01/14 13:27:34;;;;;;;1.88;0.35;;;;;;;16.01;39.18;99145.56;5100022;28;20046;-72
2023/01/14 13:30:21;;;;;;;2.47;0.40;;;;;;;17.91;37.22;99144.84;5094303;28;20054;-64
2023/01/14 13:33:32;;;;;;;1.92;0.68;;;;;;;17.10;36.68;99145.88;5090796;28;20024;-69
2023/01/14 13:36:18;;;;;;;1.33;0.28;;;;;;;17.15;35.96;99145.50;5076702;28;20524;-72
2023/01/14 13:39:06;;;;;;;3.33;0.55;;;;;;;16.30;36.60;99149.31;5083988;28;20040;-65
2023/01/14 13:41:53;;;;;;;3.85;0.60;;;;;;;15.45;38.15;99149.34;5091560;28;20070;-75
2023/01/14 13:44:38;;;;;;;1.58;0.30;;;;;;;17.02;36.94;99145.72;5094816;28;20410;-72
2023/01/14 13:47:36;;;;;;;4.28;0.40;;;;;;;17.82;40.36;99146.53;5098224;28;20494;-67
2023/01/14 13:50:28;;;;;;;2.08;0.20;;;;;;;16.77;36.06;99136.50;5098211;28;20110;-68
2023/01/14 13:53:15;;;;;;;1.27;0.32;;;;;;;16.85;38.41;99131.34;5091946;28;20097;-62
2023/01/14 13:56:02;;;;;;;1.02;0.40;;;;;;;16.72;35.79;99132.47;5097477;28;20478;-65
2023/01/14 13:58:49;;;;;;;2.75;0.30;;;;;;;17.23;42.21;99124.44;5093965;28;20067;-67
2023/01/14 14:01:40;;;;;;;2.60;0.45;;;;;;;16.91;35.78;99125.50;5080940;28;20044;-65
2023/01/14 14:04:59;;;;;;;0.60;0.22;;;;;;;17.28;41.70;99120.56;5086237;28;20482;-69